Time;durP1;ratioP1;P1;durP2;ratioP2;P2;SDS_P1;SDS_P2;PMS_P1;PMS_P2;Temp;Humidity;BMP_temperature;BMP_pressure;BME280_temperature;BME280_humidity;BME280_pressure;Samples;Min_cycle;Max_cycle;Signal;HPM_P1;HPM_P2
2022/10/05 00:01:31;;;;;;;6.85;1.48;;;;;;;;;;5025705;28;20057;-72
2022/10/05 00:04:23;;;;;;;7.43;1.15;;;;;;;;;;5027082;28;20096;-71
2022/10/05 00:07:22;;;;;;;5.43;1.23;;;;;;;;;;5026034;28;20057;-71
2022/10/05 00:09:58;;;;;;;8.10;1.20;;;;;;;;;;5025474;28;20061;-70
2022/10/05 00:12:28;;;;;;;;;;;;;;;;;;5025628;28;20045;-70
2022/10/05 00:15:00;;;;;;;7.15;1.40;;;;;;;;;;5025547;28;20368;-70
2022/10/05 00:17:31;;;;;;;5.63;1.40;;;;;;;;;;5025734;28;20061;-70
2022/10/05 00:20:10;;;;;;;8.32;1.33;;;;;;;;;;5026610;28;20432;-70
2022/10/05 00:22:41;;;;;;;10.50;1.60;;;;;;;;;;5025820;28;20045;-70
2022/10/05 00:25:20;;;;;;;8.90;1.38;;;;;;;;;;5026594;28;20049;-71
2022/10/05 00:27:59;;;;;;;14.68;1.70;;;;;;;;;;5025931;28;20052;-72
2022/10/05 00:30:33;;;;;;;10.05;1.90;;;;;;;;;;5009457;28;20045;-71
2022/10/05 00:33:03;;;;;;;10.73;1.75;;;;;;;;;;5026147;28;20396;-73
2022/10/05 00:35:35;;;;;;;8.68;1.40;;;;;;;;;;5025128;28;20721;-71
2022/10/05 00:38:05;;;;;;;9.82;1.77;;;;;;;;;;5025159;28;20053;-71
2022/10/05 00:41:18;;;;;;;7.28;1.38;;;;;;;;;;5024796;28;20476;-72
2022/10/05 00:44:19;;;;;;;7.38;1.52;;;;;;;;;;5021251;28;20092;-70
2022/10/05 00:47:06;;;;;;;8.85;1.50;;;;;;;;;;5021888;28;20065;-71
2022/10/05 00:49:45;;;;;;;4.32;1.30;;;;;;;;;;5024486;28;20747;-71
2022/10/05 00:52:45;;;;;;;11.02;1.98;;;;;;;;;;5026005;28;20057;-72
2022/10/05 00:55:37;;;;;;;7.45;1.70;;;;;;;;;;5028787;28;20075;-72
2022/10/05 00:58:26;;;;;;;6.53;1.70;;;;;;;;;;5029051;28;20424;-72
2022/10/05 01:01:11;;;;;;;4.13;1.73;;;;;;;;;;5029920;28;20414;-69
2022/10/05 01:03:51;;;;;;;6.10;1.42;;;;;;;;;;5030571;28;20041;-71
2022/10/05 01:06:27;;;;;;;8.00;1.77;;;;;;;;;;5028001;28;20049;-72
2022/10/05 01:09:34;;;;;;;10.57;1.70;;;;;;;;;;5029849;28;20108;-72
2022/10/05 01:12:13;;;;;;;;;;;;;;;;;;5030857;28;20618;-72
2022/10/05 01:14:55;;;;;;;8.07;1.70;;;;;;;;;;5028215;28;20284;-71
2022/10/05 01:17:38;;;;;;;7.47;1.40;;;;;;;;;;5029302;28;20406;-72
2022/10/05 01:20:20;;;;;;;12.30;2.00;;;;;;;;;;5029514;28;20046;-72
2022/10/05 01:22:50;;;;;;;;;;;;;;;;;;5028738;28;20053;-72
2022/10/05 01:25:25;;;;;;;6.60;1.15;;;;;;;;;;5028589;28;20529;-70
2022/10/05 01:28:06;;;;;;;12.57;1.83;;;;;;;;;;5029436;28;20088;-71
2022/10/05 01:31:09;;;;;;;8.18;1.70;;;;;;;;;;5028725;28;20049;-71
2022/10/05 01:34:02;;;;;;;12.95;1.65;;;;;;;;;;5029087;28;20050;-72
2022/10/05 01:36:50;;;;;;;11.48;1.75;;;;;;;;;;5025046;28;20049;-70
2022/10/05 01:39:36;;;;;;;18.77;1.73;;;;;;;;;;5027996;28;20060;-72
2022/10/05 01:42:24;;;;;;;7.22;1.63;;;;;;;;;;5027510;28;20524;-72
2022/10/05 01:45:10;;;;;;;7.18;1.13;;;;;;;;;;5028061;28;20057;-69
2022/10/05 01:48:21;;;;;;;13.15;1.15;;;;;;;;;;5025752;28;20645;-72
2022/10/05 01:51:11;;;;;;;7.15;1.38;;;;;;;;;;5028469;28;20065;-71
2022/10/05 01:53:44;;;;;;;6.72;1.40;;;;;;;;;;5029643;28;20508;-71
2022/10/05 01:56:21;;;;;;;14.07;1.60;;;;;;;;;;5027917;28;20405;-71
2022/10/05 01:59:17;;;;;;;4.68;1.15;;;;;;;;;;5027864;28;20053;-70
2022/10/05 02:01:57;;;;;;;7.50;1.42;;;;;;;;;;5029142;28;20053;-71
2022/10/05 02:04:38;;;;;;;7.72;1.30;;;;;;;;;;5027760;28;20072;-70
2022/10/05 02:08:12;;;;;;;14.73;1.63;;;;;;;;;;5027320;28;20057;-70
2022/10/05 02:11:10;;;;;;;7.82;1.52;;;;;;;;;;5022990;28;20061;-71
2022/10/05 02:13:57;;;;;;;12.15;1.38;;;;;;;;;;5040206;28;20049;-72
2022/10/05 02:16:34;;;;;;;7.80;1.33;;;;;;;;;;5045417;28;20527;-71
2022/10/05 02:19:20;;;;;;;10.55;1.75;;;;;;;;;;5045612;28;20056;-71
2022/10/05 02:22:07;;;;;;;8.32;1.30;;;;;;;;;;5047149;28;20053;-70
2022/10/05 02:24:46;;;;;;;5.82;1.02;;;;;;;;;;5046248;28;20068;-70
2022/10/05 02:27:21;;;;;;;6.85;1.35;;;;;;;;;;5045380;28;20056;-70
2022/10/05 02:29:55;;;;;;;4.78;1.30;;;;;;;;;;5047392;28;20059;-71
2022/10/05 02:32:32;;;;;;;15.02;1.90;;;;;;;;;;5046590;28;20531;-71
2022/10/05 02:35:12;;;;;;;6.43;0.85;;;;;;;;;;5046794;28;20060;-70
2022/10/05 02:37:49;;;;;;;6.32;1.10;;;;;;;;;;5047871;28;20056;-71
2022/10/05 02:40:48;;;;;;;5.72;1.40;;;;;;;;;;5048461;28;20045;-71
2022/10/05 02:43:44;;;;;;;9.38;1.52;;;;;;;;;;5046910;28;20064;-71
2022/10/05 02:46:35;;;;;;;9.25;1.20;;;;;;;;;;5046646;28;20049;-71
2022/10/05 02:49:25;;;;;;;6.97;1.95;;;;;;;;;;5046475;28;20056;-71
2022/10/05 02:52:13;;;;;;;12.15;1.10;;;;;;;;;;5046223;28;20060;-71
2022/10/05 02:55:18;;;;;;;6.13;1.13;;;;;;;;;;5046227;28;20056;-71
2022/10/05 02:58:03;;;;;;;11.40;1.48;;;;;;;;;;5037106;28;20060;-71
2022/10/05 03:00:49;;;;;;;13.98;1.55;;;;;;;;;;5031019;28;20049;-70
2022/10/05 03:03:38;;;;;;;3.90;0.85;;;;;;;;;;5046264;28;20520;-70
2022/10/05 03:06:19;;;;;;;12.80;1.30;;;;;;;;;;5046415;28;20048;-71
2022/10/05 03:09:05;;;;;;;12.85;1.60;;;;;;;;;;5047974;28;20056;-71
2022/10/05 03:11:57;;;;;;;8.15;1.20;;;;;;;;;;5047079;28;20080;-70
2022/10/05 03:14:50;;;;;;;5.10;1.10;;;;;;;;;;5045231;28;20084;-71
2022/10/05 03:17:39;;;;;;;7.55;1.02;;;;;;;;;;5046414;28;20048;-71
2022/10/05 03:20:19;;;;;;;8.88;1.15;;;;;;;;;;5045858;28;20404;-70
2022/10/05 03:23:01;;;;;;;8.27;1.13;;;;;;;;;;5047168;28;20060;-70
2022/10/05 03:25:49;;;;;;;5.20;1.00;;;;;;;;;;5045771;28;20068;-71
2022/10/05 03:28:26;;;;;;;6.70;0.80;;;;;;;;;;5045707;28;20065;-71
2022/10/05 03:31:09;;;;;;;11.30;1.63;;;;;;;;;;5045941;28;20431;-70
2022/10/05 03:34:14;;;;;;;9.18;1.33;;;;;;;;;;5045802;28;20076;-71
2022/10/05 03:36:58;;;;;;;3.65;0.90;;;;;;;;;;5004366;28;20053;-70
2022/10/05 03:40:06;;;;;;;6.57;1.25;;;;;;;;;;5041255;28;20052;-72
2022/10/05 03:42:46;;;;;;;7.07;1.08;;;;;;;;;;5027893;28;20480;-71
2022/10/05 03:45:50;;;;;;;8.23;1.20;;;;;;;;;;5045850;28;20064;-70
2022/10/05 03:48:47;;;;;;;5.53;1.10;;;;;;;;;;5046819;28;20503;-71
2022/10/05 03:51:51;;;;;;;5.35;1.08;;;;;;;;;;5045815;28;20049;-71
2022/10/05 03:54:32;;;;;;;4.22;0.77;;;;;;;;;;5037403;28;20512;-71
2022/10/05 03:57:10;;;;;;;11.95;1.80;;;;;;;;;;5045287;28;20049;-71
2022/10/05 04:00:04;;;;;;;9.95;1.23;;;;;;;;;;5045169;28;20056;-71
2022/10/05 04:02:58;;;;;;;6.47;1.02;;;;;;;;;;5045531;28;20061;-71
2022/10/05 04:05:47;;;;;;;9.68;1.23;;;;;;;;;;5045570;28;20048;-72
2022/10/05 04:08:48;;;;;;;4.38;0.70;;;;;;;;;;5045320;28;20056;-71
2022/10/05 04:11:49;;;;;;;5.63;0.75;;;;;;;;;;5037942;28;20057;-71
2022/10/05 04:14:33;;;;;;;4.00;0.63;;;;;;;;;;5026038;28;20122;-73
2022/10/05 04:17:31;;;;;;;5.28;1.23;;;;;;;;;;5045431;28;20053;-72
2022/10/05 04:20:16;;;;;;;5.07;0.80;;;;;;;;;;5045998;28;20048;-71
2022/10/05 04:23:07;;;;;;;5.07;1.17;;;;;;;;;;5044712;28;20045;-71
2022/10/05 04:25:50;;;;;;;11.02;1.45;;;;;;;;;;5045137;28;20060;-70
2022/10/05 04:28:40;;;;;;;5.55;0.98;;;;;;;;;;5045490;28;20055;-71
2022/10/05 04:31:16;;;;;;;5.75;0.80;;;;;;;;;;5046409;28;20451;-71
2022/10/05 04:33:48;;;;;;;;;;;;;;;;;;5046831;28;20052;-71
2022/10/05 04:36:30;;;;;;;6.88;0.80;;;;;;;;;;5044929;28;20307;-70
2022/10/05 04:39:26;;;;;;;7.40;1.35;;;;;;;;;;5045208;28;20068;-76
2022/10/05 04:42:03;;;;;;;7.10;1.10;;;;;;;;;;5045007;28;20419;-71
2022/10/05 04:44:51;;;;;;;3.38;0.80;;;;;;;;;;5045192;28;20059;-71
2022/10/05 04:48:09;;;;;;;9.82;1.33;;;;;;;;;;5046512;28;20061;-71
2022/10/05 04:50:56;;;;;;;5.68;1.05;;;;;;;;;;5045138;28;20072;-70
2022/10/05 04:53:38;;;;;;;9.65;1.20;;;;;;;;;;5045183;28;20049;-70
2022/10/05 04:56:29;;;;;;;4.78;0.98;;;;;;;;;;5045778;28;20515;-71
2022/10/05 04:59:28;;;;;;;5.03;0.77;;;;;;;;;;5044720;28;20057;-70
2022/10/05 05:02:26;;;;;;;12.50;1.10;;;;;;;;;;5045751;28;20048;-71
2022/10/05 05:05:21;;;;;;;4.50;0.80;;;;;;;;;;5044844;28;20053;-71
2022/10/05 05:08:17;;;;;;;2.65;0.73;;;;;;;;;;5041580;28;20052;-71
2022/10/05 05:10:54;;;;;;;7.55;1.08;;;;;;;;;;5044423;28;20045;-71
2022/10/05 05:13:43;;;;;;;10.23;1.10;;;;;;;;;;5044651;28;20063;-71
2022/10/05 05:16:32;;;;;;;9.27;0.80;;;;;;;;;;5045398;28;20068;-70
2022/10/05 05:19:29;;;;;;;5.13;1.40;;;;;;;;;;5044111;28;20053;-70
2022/10/05 05:22:24;;;;;;;3.72;0.60;;;;;;;;;;5045277;28;20052;-72
2022/10/05 05:25:19;;;;;;;7.70;1.40;;;;;;;;;;5044765;28;20052;-70
2022/10/05 05:28:25;;;;;;;5.57;1.00;;;;;;;;;;5044168;28;20060;-70
2022/10/05 05:31:06;;;;;;;6.32;0.90;;;;;;;;;;5023451;28;20057;-70
2022/10/05 05:34:04;;;;;;;4.32;0.80;;;;;;;;;;5045409;28;20040;-71
2022/10/05 05:36:52;;;;;;;8.63;0.80;;;;;;;;;;5044469;28;20443;-70
2022/10/05 05:39:24;;;;;;;5.38;0.65;;;;;;;;;;5048036;28;20052;-70
2022/10/05 05:42:09;;;;;;;3.95;0.85;;;;;;;;;;5047493;28;20041;-70
2022/10/05 05:44:53;;;;;;;3.70;0.70;;;;;;;;;;5048291;28;20052;-71
2022/10/05 05:47:39;;;;;;;6.28;1.05;;;;;;;;;;5047934;28;20535;-71
2022/10/05 05:50:29;;;;;;;11.73;1.00;;;;;;;;;;5047514;28;20059;-71
2022/10/05 05:53:41;;;;;;;7.05;0.80;;;;;;;;;;5047458;28;20061;-71
2022/10/05 05:56:39;;;;;;;3.65;0.75;;;;;;;;;;5018858;28;20048;-71
2022/10/05 05:59:18;;;;;;;2.80;0.82;;;;;;;;;;5045814;28;20048;-71
2022/10/05 06:01:53;;;;;;;7.28;0.82;;;;;;;;;;5049313;28;20041;-70
2022/10/05 06:04:35;;;;;;;6.18;0.95;;;;;;;;;;5047491;28;20053;-70
2022/10/05 06:07:06;;;;;;;2.45;0.82;;;;;;;;;;5047456;28;20446;-70
2022/10/05 06:10:25;;;;;;;3.75;0.70;;;;;;;;;;5048673;28;20060;-70
2022/10/05 06:13:24;;;;;;;3.30;0.60;;;;;;;;;;5005945;28;20064;-71
2022/10/05 06:15:59;;;;;;;4.25;0.90;;;;;;;;;;5047108;28;20060;-70
2022/10/05 06:18:32;;;;;;;7.18;0.50;;;;;;;;;;5047323;28;20052;-70
2022/10/05 06:21:18;;;;;;;3.15;0.77;;;;;;;;;;5046983;28;20046;-71
2022/10/05 06:24:09;;;;;;;4.72;0.70;;;;;;;;;;5047451;28;20067;-70
2022/10/05 06:26:57;;;;;;;4.22;0.77;;;;;;;;;;5048850;28;20044;-70
2022/10/05 06:29:46;;;;;;;5.55;1.10;;;;;;;;;;5047365;28;20063;-71
2022/10/05 06:32:16;;;;;;;7.70;0.80;;;;;;;;;;5048459;28;20399;-70
2022/10/05 06:35:00;;;;;;;1.58;0.50;;;;;;;;;;5046902;28;20131;-70
2022/10/05 06:37:46;;;;;;;1.80;0.57;;;;;;;;;;5046778;28;20057;-71
2022/10/05 06:40:49;;;;;;;8.40;0.98;;;;;;;;;;5046685;28;20056;-70
2022/10/05 06:43:39;;;;;;;4.78;0.77;;;;;;;;;;5041369;28;20528;-70
2022/10/05 06:46:40;;;;;;;4.63;0.70;;;;;;;;;;5045194;28;20057;-70
2022/10/05 06:49:50;;;;;;;4.57;0.80;;;;;;;;;;5046136;28;20057;-70
2022/10/05 06:52:43;;;;;;;;;;;;;;;;;;5046881;28;20067;-71
2022/10/05 06:55:34;;;;;;;5.25;1.10;;;;;;;;;;5046708;28;19940;-70
2022/10/05 06:58:40;;;;;;;6.07;0.65;;;;;;;;;;5046534;28;20056;-70
2022/10/05 07:01:32;;;;;;;3.72;0.60;;;;;;;;;;5046166;28;20519;-70
2022/10/05 07:04:36;;;;;;;4.88;0.70;;;;;;;;;;5047563;28;20045;-70
2022/10/05 07:07:22;;;;;;;6.57;1.10;;;;;;;;;;5047051;28;20539;-70
2022/10/05 07:09:58;;;;;;;3.33;1.02;;;;;;;;;;5045533;28;20515;-70
2022/10/05 07:12:40;;;;;;;7.82;1.60;;;;;;;;;;5045898;28;20059;-71
2022/10/05 07:15:49;;;;;;;8.75;1.10;;;;;;;;;;5045904;28;20432;-71
2022/10/05 07:18:31;;;;;;;5.13;0.82;;;;;;;;;;5046093;28;20056;-70
2022/10/05 07:21:38;;;;;;;5.68;0.80;;;;;;;;;;5045895;28;20053;-70
2022/10/05 07:24:14;;;;;;;3.45;0.47;;;;;;;;;;5045909;28;20053;-71
2022/10/05 07:27:02;;;;;;;4.93;0.90;;;;;;;;;;5047088;28;20866;-69
2022/10/05 07:29:55;;;;;;;1.95;0.73;;;;;;;;;;5046165;28;20048;-70
2022/10/05 07:32:35;;;;;;;2.08;0.80;;;;;;;;;;5037648;28;20088;-70
2022/10/05 07:38:56;;;;;;;5.95;0.50;;;;;;;;;;5036673;28;20056;-71
2022/10/05 07:41:46;;;;;;;2.90;0.73;;;;;;;;;;5045605;28;20056;-71
2022/10/05 07:44:22;;;;;;;3.45;0.60;;;;;;;;;;5045573;28;20147;-71
2022/10/05 07:47:02;;;;;;;7.05;0.80;;;;;;;;;;5045695;28;20075;-70
2022/10/05 07:49:46;;;;;;;1.02;0.47;;;;;;;;;;5045537;28;20504;-70
2022/10/05 07:52:45;;;;;;;3.05;0.70;;;;;;;;;;5046530;28;20049;-70
2022/10/05 07:55:19;;;;;;;3.80;0.50;;;;;;;;;;5046586;28;20040;-71
2022/10/05 07:58:00;;;;;;;4.65;0.65;;;;;;;;;;5045852;28;20152;-70
2022/10/05 08:01:06;;;;;;;4.15;0.90;;;;;;;;;;5046440;28;20045;-70
2022/10/05 08:03:57;;;;;;;9.68;1.02;;;;;;;;;;5044993;28;20048;-71
2022/10/05 08:06:33;;;;;;;5.15;1.33;;;;;;;;;;5046396;28;20499;-71
2022/10/05 08:09:40;;;;;;;4.40;0.93;;;;;;;;;;5045489;28;20056;-71
2022/10/05 08:12:24;;;;;;;6.45;1.10;;;;;;;;;;5046238;28;20056;-71
2022/10/05 08:15:14;;;;;;;3.95;0.75;;;;;;;;;;5046736;28;20064;-71
2022/10/05 08:17:52;;;;;;;3.35;1.15;;;;;;;;;;5045992;28;20049;-69
2022/10/05 08:20:31;;;;;;;5.50;0.70;;;;;;;;;;5046190;28;20052;-71
2022/10/05 08:23:32;;;;;;;2.75;0.75;;;;;;;;;;5046331;28;20040;-70
2022/10/05 08:26:15;;;;;;;4.28;1.10;;;;;;;;;;5041500;28;20069;-71
2022/10/05 08:28:55;;;;;;;4.28;0.98;;;;;;;;;;5046269;28;20049;-71
2022/10/05 08:31:38;;;;;;;5.82;1.40;;;;;;;;;;5046341;28;20088;-70
2022/10/05 08:34:26;;;;;;;6.25;1.00;;;;;;;;;;5047224;28;20060;-70
2022/10/05 08:37:21;;;;;;;2.78;0.90;;;;;;;;;;5046646;28;20029;-71
2022/10/05 08:39:53;;;;;;;3.08;0.65;;;;;;;;;;5045096;28;20048;-70
2022/10/05 08:42:26;;;;;;;4.55;0.90;;;;;;;;;;5046162;28;20049;-70
2022/10/05 08:45:15;;;;;;;4.25;0.95;;;;;;;;;;5046271;28;20037;-70
2022/10/05 08:48:02;;;;;;;6.30;1.13;;;;;;;;;;5046262;28;20506;-69
2022/10/05 08:50:48;;;;;;;4.30;0.70;;;;;;;;;;5045907;28;20048;-70
2022/10/05 08:53:55;;;;;;;3.40;1.10;;;;;;;;;;5045997;28;20108;-70
2022/10/05 08:56:42;;;;;;;3.50;0.57;;;;;;;;;;5046104;28;20404;-74
2022/10/05 08:59:44;;;;;;;5.15;1.17;;;;;;;;;;5046144;28;20416;-70
2022/10/05 09:02:37;;;;;;;1.52;0.70;;;;;;;;;;5046391;28;20045;-70
2022/10/05 09:05:25;;;;;;;10.25;0.75;;;;;;;;;;5046061;28;20052;-69
2022/10/05 09:08:10;;;;;;;4.50;0.98;;;;;;;;;;5045818;28;20060;-70
2022/10/05 09:11:03;;;;;;;3.38;0.90;;;;;;;;;;5046044;28;20056;-70
2022/10/05 09:13:40;;;;;;;5.40;0.95;;;;;;;;;;5048271;28;20411;-71
2022/10/05 09:16:23;;;;;;;5.05;1.02;;;;;;;;;;5049718;28;20056;-70
2022/10/05 09:19:07;;;;;;;3.53;1.08;;;;;;;;;;5050110;28;20044;-70
2022/10/05 09:21:41;;;;;;;12.35;1.85;;;;;;;;;;5049615;28;20041;-71
2022/10/05 09:24:12;;;;;;;4.28;1.00;;;;;;;;;;5049669;28;20057;-72
2022/10/05 09:27:13;;;;;;;3.50;1.20;;;;;;;;;;5048088;28;20531;-76
2022/10/05 09:29:58;;;;;;;3.30;0.98;;;;;;;;;;5049707;28;20048;-71
2022/10/05 09:32:53;;;;;;;3.80;1.05;;;;;;;;;;5049541;28;20049;-71
2022/10/05 09:35:38;;;;;;;6.50;1.30;;;;;;;;;;5049491;28;20045;-71
2022/10/05 09:38:34;;;;;;;10.18;1.52;;;;;;;;;;5049564;28;20045;-70
2022/10/05 09:41:34;;;;;;;4.05;1.13;;;;;;;;;;5034725;28;20053;-70
2022/10/05 09:44:29;;;;;;;8.07;2.13;;;;;;;;;;5049283;28;20076;-70
2022/10/05 09:47:31;;;;;;;2.85;1.30;;;;;;;;;;5048931;28;20057;-70
2022/10/05 09:50:31;;;;;;;5.28;1.10;;;;;;;;;;5047120;28;20057;-71
2022/10/05 09:53:43;;;;;;;10.73;2.47;;;;;;;;;;5049417;28;20053;-70
2022/10/05 09:56:21;;;;;;;12.85;1.60;;;;;;;;;;5048542;28;20052;-71
2022/10/05 09:58:51;;;;;;;3.97;1.23;;;;;;;;;;5049178;28;20158;-70
2022/10/05 10:01:47;;;;;;;4.72;1.30;;;;;;;;;;5049034;28;20037;-71
2022/10/05 10:04:21;;;;;;;2.58;1.00;;;;;;;;;;5048912;28;20045;-71
2022/10/05 10:07:19;;;;;;;10.38;2.35;;;;;;;;;;5048762;28;20036;-71
2022/10/05 10:10:37;;;;;;;5.50;1.13;;;;;;;;;;5025633;28;20049;-70
2022/10/05 10:13:45;;;;;;;11.75;1.98;;;;;;;;;;5049232;28;20511;-71
2022/10/05 10:16:15;;;;;;;13.02;1.40;;;;;;;;;;5047923;28;20041;-70
2022/10/05 10:19:02;;;;;;;;;;;;;;;;;;5049447;28;20049;-70
2022/10/05 10:21:56;;;;;;;12.02;1.60;;;;;;;;;;5048514;28;19927;-72
2022/10/05 10:24:37;;;;;;;11.35;1.30;;;;;;;;;;5048606;28;20045;-71
2022/10/05 10:27:26;;;;;;;7.32;1.17;;;;;;;;;;5048667;28;20041;-75
2022/10/05 10:30:17;;;;;;;8.25;1.63;;;;;;;;;;5048242;28;20055;-70
2022/10/05 10:33:24;;;;;;;13.38;3.03;;;;;;;;;;5048262;28;20052;-71
2022/10/05 10:36:14;;;;;;;8.50;1.38;;;;;;;;;;5047815;28;20064;-71
2022/10/05 10:39:11;;;;;;;5.22;2.03;;;;;;;;;;5047864;28;20049;-70
2022/10/05 10:42:03;;;;;;;7.47;1.52;;;;;;;;;;5047671;28;20064;-72
2022/10/05 10:44:48;;;;;;;4.35;1.17;;;;;;;;;;5048264;28;20064;-72
2022/10/05 10:47:46;;;;;;;7.55;1.52;;;;;;;;;;5048166;28;20060;-75
2022/10/05 10:51:06;;;;;;;16.33;2.20;;;;;;;;;;5048397;28;20461;-71
2022/10/05 10:53:56;;;;;;;3.22;1.00;;;;;;;;;;5025519;28;20057;-72
2022/10/05 10:56:47;;;;;;;6.22;1.10;;;;;;;;;;5047449;28;20053;-74
2022/10/05 10:59:47;;;;;;;12.88;1.50;;;;;;;;;;5046271;28;20048;-76
2022/10/05 11:02:49;;;;;;;4.07;1.20;;;;;;;;;;5047362;28;20037;-72
2022/10/05 11:05:32;;;;;;;5.28;1.23;;;;;;;;;;5047431;28;20045;-71
2022/10/05 11:08:29;;;;;;;4.60;1.40;;;;;;;;;;5048189;28;20056;-76
2022/10/05 11:11:24;;;;;;;5.28;1.40;;;;;;;;;;5048007;28;20056;-75
2022/10/05 11:14:22;;;;;;;5.40;1.35;;;;;;;;;;5057848;28;20048;-72
2022/10/05 11:17:30;;;;;;;8.93;1.45;;;;;;;;;;5057224;28;20064;-71
2022/10/05 11:20:21;;;;;;;7.07;1.35;;;;;;;;;;5047584;28;20508;-72
2022/10/05 11:23:07;;;;;;;3.85;1.17;;;;;;;;;;5047394;28;20492;-72
2022/10/05 11:25:54;;;;;;;6.78;1.33;;;;;;;;;;5047025;28;20055;-74
2022/10/05 11:28:45;;;;;;;7.18;1.90;;;;;;;;;;5047114;28;20052;-72
2022/10/05 11:31:39;;;;;;;4.60;1.52;;;;;;;;;;5046700;28;20500;-72
2022/10/05 11:34:37;;;;;;;17.33;1.80;;;;;;;;;;5047052;28;20507;-72
2022/10/05 11:37:48;;;;;;;7.72;1.98;;;;;;;;;;5043876;28;20049;-72
2022/10/05 11:40:37;;;;;;;8.32;1.77;;;;;;;;;;5031651;28;20107;-72
2022/10/05 11:43:31;;;;;;;11.32;1.90;;;;;;;;;;5045673;28;20538;-72
2022/10/05 11:46:16;;;;;;;6.97;1.40;;;;;;;;;;5045270;28;20163;-73
2022/10/05 11:49:22;;;;;;;9.63;2.65;;;;;;;;;;5045117;28;20424;-75
2022/10/05 11:52:05;;;;;;;6.22;1.50;;;;;;;;;;5046542;28;20409;-72
2022/10/05 11:54:48;;;;;;;7.38;1.20;;;;;;;;;;5046439;28;20045;-72
2022/10/05 11:57:53;;;;;;;5.38;0.80;;;;;;;;;;5046284;28;20044;-72
2022/10/05 12:00:39;;;;;;;7.97;1.48;;;;;;;;;;5046458;28;20067;-72
2022/10/05 12:03:33;;;;;;;14.15;1.40;;;;;;;;;;5046283;28;20048;-72
2022/10/05 12:06:30;;;;;;;6.78;1.20;;;;;;;;;;5045737;28;20056;-72
2022/10/05 12:09:35;;;;;;;3.88;1.40;;;;;;;;;;5046749;28;20041;-72
2022/10/05 12:12:10;;;;;;;3.35;1.13;;;;;;;;;;5003766;28;20049;-73
2022/10/05 12:14:57;;;;;;;7.10;1.02;;;;;;;;;;5041939;28;20064;-71
2022/10/05 12:17:41;;;;;;;3.80;0.75;;;;;;;;;;5046475;28;20045;-72
2022/10/05 12:20:44;;;;;;;3.58;1.00;;;;;;;;;;5044908;28;20041;-72
2022/10/05 12:23:22;;;;;;;5.10;0.90;;;;;;;;;;5043324;28;20057;-73
2022/10/05 12:26:13;;;;;;;7.20;0.80;;;;;;;;;;5046151;28;20536;-72
2022/10/05 12:29:00;;;;;;;5.25;0.80;;;;;;;;;;5046029;28;20041;-72
2022/10/05 12:32:03;;;;;;;2.97;0.77;;;;;;;;;;5046311;28;20052;-73
2022/10/05 12:34:43;;;;;;;4.60;0.90;;;;;;;;;;5044550;28;20048;-72
2022/10/05 12:37:31;;;;;;;4.45;0.80;;;;;;;;;;5046114;28;20045;-73
2022/10/05 12:40:13;;;;;;;7.50;1.67;;;;;;;;;;5045525;28;20062;-73
2022/10/05 12:43:23;;;;;;;5.13;0.82;;;;;;;;;;5044459;28;20520;-74
2022/10/05 12:46:19;;;;;;;5.18;0.98;;;;;;;;;;5045908;28;20411;-72
2022/10/05 12:49:06;;;;;;;3.10;0.85;;;;;;;;;;5030178;28;20060;-73
2022/10/05 12:51:44;;;;;;;2.47;1.15;;;;;;;;;;5050105;28;20053;-72
2022/10/05 12:54:19;;;;;;;4.53;1.00;;;;;;;;;;5050381;28;20416;-74
2022/10/05 12:57:07;;;;;;;2.72;1.02;;;;;;;;;;5050560;28;20500;-73
2022/10/05 12:59:54;;;;;;;6.75;0.90;;;;;;;;;;5049886;28;20056;-73
2022/10/05 13:02:38;;;;;;;5.18;1.17;;;;;;;;;;5049516;28;20048;-72
2022/10/05 13:05:11;;;;;;;5.22;0.88;;;;;;;;;;5049461;28;20045;-73
2022/10/05 13:08:04;;;;;;;2.88;0.90;;;;;;;;;;5049903;28;20412;-73
2022/10/05 13:11:00;;;;;;;2.50;0.70;;;;;;;;;;5049782;28;20045;-74
2022/10/05 13:13:39;;;;;;;6.35;1.02;;;;;;;;;;5049612;28;20044;-72
2022/10/05 13:16:25;;;;;;;8.65;1.13;;;;;;;;;;5049114;28;20044;-72
2022/10/05 13:19:24;;;;;;;1.92;1.00;;;;;;;;;;5050317;28;20420;-73
2022/10/05 13:22:03;;;;;;;13.18;3.65;;;;;;;;;;5049651;28;20053;-74
2022/10/05 13:24:42;;;;;;;5.57;1.30;;;;;;;;;;5048263;28;20053;-73
2022/10/05 13:27:21;;;;;;;4.53;0.90;;;;;;;;;;5049806;28;20048;-74
2022/10/05 13:30:15;;;;;;;4.88;1.15;;;;;;;;;;5049514;28;20531;-72
2022/10/05 13:33:19;;;;;;;2.80;1.33;;;;;;;;;;5049981;28;20059;-73
2022/10/05 13:36:00;;;;;;;5.65;1.48;;;;;;;;;;5042245;28;20061;-74
2022/10/05 13:38:33;;;;;;;7.60;1.20;;;;;;;;;;5049729;28;20526;-73
2022/10/05 13:41:34;;;;;;;1.83;1.08;;;;;;;;;;5049014;28;20049;-75
2022/10/05 13:44:37;;;;;;;4.35;1.10;;;;;;;;;;5047971;28;20387;-72
2022/10/05 13:47:16;;;;;;;2.78;1.20;;;;;;;;;;5049698;28;20096;-72
2022/10/05 13:49:49;;;;;;;2.75;1.13;;;;;;;;;;5049278;28;20045;-72
2022/10/05 13:52:33;;;;;;;6.90;1.70;;;;;;;;;;5049219;28;20368;-73
2022/10/05 13:55:33;;;;;;;5.13;1.42;;;;;;;;;;5048960;28;20049;-74
2022/10/05 13:58:26;;;;;;;3.33;1.40;;;;;;;;;;5048271;28;20048;-72
2022/10/05 14:01:06;;;;;;;4.70;1.20;;;;;;;;;;5048307;28;20516;-73
2022/10/05 14:03:37;;;;;;;4.63;1.30;;;;;;;;;;5049083;28;20045;-73
2022/10/05 14:06:26;;;;;;;2.65;1.30;;;;;;;;;;5048852;28;20059;-73
2022/10/05 14:08:59;;;;;;;3.80;1.10;;;;;;;;;;5048651;28;20040;-73
2022/10/05 14:11:34;;;;;;;2.20;1.33;;;;;;;;;;5048668;28;20053;-72
2022/10/05 14:14:14;;;;;;;2.60;1.23;;;;;;;;;;5048472;28;20040;-74
2022/10/05 14:16:54;;;;;;;5.95;1.13;;;;;;;;;;5048368;28;20056;-73
2022/10/05 14:19:34;;;;;;;5.18;1.73;;;;;;;;;;5049114;28;20543;-74
2022/10/05 14:22:21;;;;;;;4.65;0.90;;;;;;;;;;5048680;28;20049;-73
2022/10/05 14:25:02;;;;;;;4.13;1.38;;;;;;;;;;5048543;28;20049;-73
2022/10/05 14:28:02;;;;;;;5.47;1.52;;;;;;;;;;5047366;28;20052;-81
2022/10/05 14:30:33;;;;;;;5.60;1.42;;;;;;;;;;5048229;28;20056;-74
2022/10/05 14:33:03;;;;;;;6.93;1.50;;;;;;;;;;5048003;28;20167;-77
2022/10/05 14:35:51;;;;;;;6.45;1.63;;;;;;;;;;5048101;28;20060;-76
2022/10/05 14:38:50;;;;;;;1.75;1.10;;;;;;;;;;5047928;28;20428;-74
2022/10/05 14:41:26;;;;;;;3.22;1.08;;;;;;;;;;5048203;28;20056;-74
2022/10/05 14:44:30;;;;;;;3.20;1.35;;;;;;;;;;5048251;28;20504;-79
2022/10/05 14:47:21;;;;;;;3.58;1.58;;;;;;;;;;5047749;28;20424;-77
2022/10/05 14:50:14;;;;;;;3.75;2.25;;;;;;;;;;5047731;28;20076;-73
2022/10/05 14:52:59;;;;;;;4.22;1.27;;;;;;;;;;5047849;28;20060;-73
2022/10/05 14:56:00;;;;;;;8.77;1.60;;;;;;;;;;5047907;28;20420;-74
2022/10/05 14:58:36;;;;;;;3.53;1.30;;;;;;;;;;5047514;28;20041;-74
2022/10/05 15:01:33;;;;;;;2.05;1.40;;;;;;;;;;5046959;28;20053;-74
2022/10/05 15:04:25;;;;;;;2.75;1.20;;;;;;;;;;5047784;28;20396;-72
2022/10/05 15:07:35;;;;;;;11.25;2.33;;;;;;;;;;5047586;28;20515;-73
2022/10/05 15:10:29;;;;;;;2.58;1.10;;;;;;;;;;5047254;28;20159;-72
2022/10/05 15:13:27;;;;;;;9.93;1.38;;;;;;;;;;5047857;28;20535;-76
2022/10/05 15:16:05;;;;;;;3.70;1.33;;;;;;;;;;5045322;28;20420;-74
2022/10/05 15:19:06;;;;;;;5.40;1.35;;;;;;;;;;5047508;28;20048;-74
2022/10/05 15:22:21;;;;;;;4.32;1.50;;;;;;;;;;5047582;28;20044;-73
2022/10/05 15:25:36;;;;;;;17.85;5.32;;;;;;;;;;5030810;28;20056;-74
2022/10/05 15:28:20;;;;;;;3.90;1.58;;;;;;;;;;5043410;28;20068;-75
2022/10/05 15:31:01;;;;;;;2.65;1.40;;;;;;;;;;5047303;28;20064;-77
2022/10/05 15:33:44;;;;;;;2.40;1.20;;;;;;;;;;5046829;28;20385;-74
2022/10/05 15:36:23;;;;;;;2.95;1.23;;;;;;;;;;5046843;28;20056;-74
2022/10/05 15:39:02;;;;;;;1.60;1.42;;;;;;;;;;5046993;28;20401;-76
2022/10/05 15:41:58;;;;;;;2.25;1.40;;;;;;;;;;5046909;28;20048;-74
2022/10/05 15:44:27;;;;;;;3.50;1.40;;;;;;;;;;5046885;28;20048;-73
2022/10/05 15:47:08;;;;;;;3.72;1.63;;;;;;;;;;5046760;28;20053;-72
2022/10/05 15:50:36;;;;;;;3.05;1.40;;;;;;;;;;5047220;28;20036;-74
2022/10/05 15:53:36;;;;;;;4.57;1.33;;;;;;;;;;5023025;28;20069;-73
2022/10/05 15:56:23;;;;;;;6.40;1.58;;;;;;;;;;5028918;28;20060;-75
2022/10/05 15:59:08;;;;;;;4.13;1.52;;;;;;;;;;5045130;28;20045;-76
2022/10/05 16:01:51;;;;;;;2.88;1.60;;;;;;;;;;5046620;28;20048;-74
2022/10/05 16:04:50;;;;;;;6.15;1.40;;;;;;;;;;5046304;28;20049;-75
2022/10/05 16:10:17;;;;;;;2.88;1.50;;;;;;;;;;5046644;28;20053;-73
2022/10/05 16:13:03;;;;;;;6.28;1.48;;;;;;;;;;5046841;28;20056;-71
2022/10/05 16:15:45;;;;;;;6.00;1.77;;;;;;;;;;5046707;28;20040;-74
2022/10/05 16:18:53;;;;;;;5.72;1.63;;;;;;;;;;5046300;28;20053;-75
2022/10/05 16:21:42;;;;;;;5.30;1.70;;;;;;;;;;5046350;28;20052;-74
2022/10/05 16:24:36;;;;;;;2.88;1.40;;;;;;;;;;5046233;28;20037;-74
2022/10/05 16:27:34;;;;;;;2.33;1.20;;;;;;;;;;5046476;28;20048;-74
2022/10/05 16:30:15;;;;;;;3.20;1.50;;;;;;;;;;5045606;28;20542;-73
2022/10/05 16:32:52;;;;;;;2.85;1.73;;;;;;;;;;5045547;28;20049;-75
2022/10/05 16:35:32;;;;;;;5.30;1.45;;;;;;;;;;5046264;28;20067;-76
2022/10/05 16:38:37;;;;;;;4.95;1.60;;;;;;;;;;5045030;28;20068;-72
2022/10/05 16:41:32;;;;;;;4.03;1.60;;;;;;;;;;5046420;28;20049;-75
2022/10/05 16:44:26;;;;;;;4.63;1.92;;;;;;;;;;5045997;28;20060;-73
2022/10/05 16:47:21;;;;;;;6.20;1.65;;;;;;;;;;5046056;28;20504;-70
2022/10/05 16:50:02;;;;;;;6.25;1.85;;;;;;;;;;5046199;28;20051;-75
2022/10/05 16:52:36;;;;;;;5.60;2.25;;;;;;;;;;5046263;28;20044;-73
2022/10/05 16:55:16;;;;;;;4.25;1.75;;;;;;;;;;5046378;28;20554;-78
2022/10/05 16:57:54;;;;;;;8.55;2.03;;;;;;;;;;5045178;28;20048;-72